Time;durP1;ratioP1;P1;durP2;ratioP2;P2;SDS_P1;SDS_P2;PMS_P1;PMS_P2;Temp;Humidity;BMP_temperature;BMP_pressure;BME280_temperature;BME280_humidity;BME280_pressure;Samples;Min_cycle;Max_cycle;Signal;HPM_P1;HPM_P2
2020/12/26 00:01:11;;;;;;;34.33;12.45;;;1.30;99.90;;;;;;5056447;28;20032;-81
2020/12/26 00:03:37;;;;;;;30.88;13.60;;;1.30;99.90;;;;;;5063981;28;20021;-82
2020/12/26 00:06:03;;;;;;;30.52;12.45;;;1.30;99.90;;;;;;5050984;28;20029;-82
2020/12/26 00:08:28;;;;;;;35.78;11.85;;;1.20;99.90;;;;;;5049988;28;20025;-82
2020/12/26 00:10:54;;;;;;;31.00;11.20;;;1.30;99.90;;;;;;5049625;28;20025;-82
2020/12/26 00:13:20;;;;;;;34.05;11.18;;;1.30;99.90;;;;;;5048551;28;20025;-82
2020/12/26 00:15:45;;;;;;;24.80;10.45;;;1.30;99.90;;;;;;5049532;28;20417;-82
2020/12/26 00:18:11;;;;;;;21.95;10.45;;;1.30;99.90;;;;;;5057090;28;20086;-83
2020/12/26 00:20:36;;;;;;;23.10;10.30;;;1.30;99.90;;;;;;5054299;28;20056;-82
2020/12/26 00:23:02;;;;;;;32.95;11.30;;;1.30;99.90;;;;;;5065723;28;20362;-82
2020/12/26 00:25:28;;;;;;;42.75;11.75;;;1.40;99.90;;;;;;5067633;28;20028;-82
2020/12/26 00:27:53;;;;;;;34.10;9.65;;;1.40;99.90;;;;;;5061547;28;20486;-82
2020/12/26 00:30:19;;;;;;;22.90;9.90;;;1.50;99.90;;;;;;5066798;28;20462;-80
2020/12/26 00:32:44;;;;;;;22.35;10.02;;;1.50;99.90;;;;;;5068358;28;20066;-80
2020/12/26 00:35:10;;;;;;;23.63;10.00;;;1.60;99.90;;;;;;5056374;28;20067;-82
2020/12/26 00:37:35;;;;;;;25.05;9.35;;;1.50;99.90;;;;;;5053080;28;20559;-83
2020/12/26 00:40:01;;;;;;;20.73;9.40;;;1.50;99.90;;;;;;5073959;28;20012;-83
2020/12/26 00:42:26;;;;;;;22.80;9.07;;;1.50;99.90;;;;;;5073735;28;20024;-83
2020/12/26 00:44:52;;;;;;;31.10;9.20;;;1.50;99.90;;;;;;5074015;28;20013;-83
2020/12/26 00:47:17;;;;;;;24.10;8.43;;;1.50;99.90;;;;;;5064758;28;20465;-83
2020/12/26 00:49:43;;;;;;;30.45;9.73;;;1.40;99.90;;;;;;5067139;28;20024;-80
2020/12/26 00:52:09;;;;;;;44.60;9.65;;;1.40;99.90;;;;;;5056657;28;20494;-80
2020/12/26 00:54:34;;;;;;;16.42;7.78;;;1.40;99.90;;;;;;5048867;28;20032;-80
2020/12/26 00:57:00;;;;;;;27.88;8.98;;;1.50;99.90;;;;;;5047671;28;20079;-80
2020/12/26 00:59:25;;;;;;;25.20;7.72;;;1.50;99.90;;;;;;5047598;28;20394;-80
2020/12/26 01:01:55;;;;;;;37.03;9.55;;;1.60;99.90;;;;;;5054541;28;20047;-80
2020/12/26 01:04:20;;;;;;;25.38;8.32;;;1.60;99.90;;;;;;5058776;28;20040;-80
2020/12/26 01:06:55;;;;;;;31.98;7.57;;;1.60;99.90;;;;;;5062847;28;20029;-82
2020/12/26 01:09:21;;;;;;;35.70;8.25;;;1.70;99.90;;;;;;5047712;28;20050;-82
2020/12/26 01:11:48;;;;;;;20.42;7.38;;;1.70;99.90;;;;;;5039840;28;20111;-82
2020/12/26 01:14:14;;;;;;;25.52;8.02;;;1.60;99.90;;;;;;5047311;28;20027;-83
2020/12/26 01:16:39;;;;;;;24.85;7.95;;;1.70;99.90;;;;;;5047519;28;20040;-80
2020/12/26 01:19:05;;;;;;;21.70;7.38;;;1.70;99.90;;;;;;5047696;28;20071;-80
2020/12/26 01:21:31;;;;;;;27.58;6.95;;;1.70;99.90;;;;;;5048861;28;20032;-81
2020/12/26 01:23:57;;;;;;;22.70;6.75;;;1.70;99.90;;;;;;5047639;28;20025;-80
2020/12/26 01:26:23;;;;;;;23.02;7.05;;;1.70;99.90;;;;;;5057143;28;20408;-82
2020/12/26 01:28:48;;;;;;;16.42;6.80;;;1.70;99.90;;;;;;5058368;28;20035;-83
2020/12/26 01:31:14;;;;;;;16.92;6.05;;;1.70;99.90;;;;;;5044421;28;20025;-82
2020/12/26 01:33:40;;;;;;;14.32;6.25;;;1.80;99.90;;;;;;5062647;28;20051;-83
2020/12/26 01:36:05;;;;;;;25.92;7.55;;;1.90;99.90;;;;;;5066245;28;20032;-80
2020/12/26 01:38:31;;;;;;;20.75;5.55;;;1.90;99.90;;;;;;5065664;28;20024;-80
2020/12/26 01:40:56;;;;;;;21.88;6.95;;;1.90;99.90;;;;;;5064158;28;20020;-82
2020/12/26 01:43:22;;;;;;;22.02;6.22;;;1.90;99.90;;;;;;5067700;28;20024;-82
2020/12/26 01:45:47;;;;;;;17.63;6.25;;;1.90;99.90;;;;;;5069158;28;20033;-83
2020/12/26 01:48:16;;;;;;;18.85;6.13;;;2.00;99.90;;;;;;5070938;28;20033;-82
2020/12/26 01:50:43;;;;;;;16.73;6.22;;;2.10;99.90;;;;;;5070661;28;20029;-82
2020/12/26 01:53:10;;;;;;;15.35;5.57;;;2.10;99.90;;;;;;5070833;28;20025;-83
2020/12/26 01:55:36;;;;;;;19.85;5.70;;;2.10;99.90;;;;;;5071297;28;20060;-82
2020/12/26 01:58:03;;;;;;;17.80;5.43;;;2.10;99.90;;;;;;5070281;28;20504;-83
2020/12/26 02:00:29;;;;;;;16.90;5.35;;;2.20;99.90;;;;;;5061374;28;20024;-82
2020/12/26 02:02:55;;;;;;;15.23;5.25;;;2.20;99.90;;;;;;5070316;28;20564;-82
2020/12/26 02:05:21;;;;;;;15.98;5.25;;;2.10;99.90;;;;;;5064701;28;20052;-80
2020/12/26 02:07:47;;;;;;;19.20;5.95;;;2.20;99.90;;;;;;5070378;28;20024;-80
2020/12/26 02:10:14;;;;;;;20.27;6.38;;;2.20;99.90;;;;;;5060558;28;20024;-82
2020/12/26 02:12:40;;;;;;;16.40;5.10;;;2.30;99.90;;;;;;5071634;28;20025;-82
2020/12/26 02:15:05;;;;;;;15.10;5.57;;;2.30;99.90;;;;;;5066932;28;20439;-82
2020/12/26 02:17:31;;;;;;;11.52;4.85;;;2.30;99.90;;;;;;5067682;28;20067;-82
2020/12/26 02:19:56;;;;;;;12.13;4.53;;;2.30;99.90;;;;;;5071550;28;20393;-82
2020/12/26 02:22:22;;;;;;;11.95;4.30;;;2.40;99.90;;;;;;5070291;28;20038;-82
2020/12/26 02:24:47;;;;;;;20.38;4.65;;;2.40;99.90;;;;;;5063930;28;20028;-82
2020/12/26 02:27:13;;;;;;;18.30;4.72;;;2.40;99.90;;;;;;5062293;28;20029;-82
2020/12/26 02:29:39;;;;;;;14.57;4.97;;;2.50;99.90;;;;;;5067253;28;20016;-83
2020/12/26 02:32:04;;;;;;;19.05;4.38;;;2.50;99.90;;;;;;5067893;28;20029;-83
2020/12/26 02:34:30;;;;;;;14.90;4.45;;;2.50;99.90;;;;;;5040650;28;20040;-81
2020/12/26 02:36:55;;;;;;;13.27;4.22;;;2.50;99.90;;;;;;5033701;28;20469;-80
2020/12/26 02:39:21;;;;;;;13.50;4.75;;;2.40;99.90;;;;;;5034306;28;20029;-80
2020/12/26 02:41:47;;;;;;;18.42;6.03;;;2.40;99.90;;;;;;5033904;28;20029;-82
2020/12/26 02:44:13;;;;;;;15.20;4.43;;;2.40;99.90;;;;;;5047867;28;20033;-82
2020/12/26 02:46:39;;;;;;;19.13;4.55;;;2.40;99.90;;;;;;5039620;28;20035;-81
2020/12/26 02:49:04;;;;;;;13.00;4.88;;;2.50;99.90;;;;;;5050669;28;20029;-82
2020/12/26 02:51:30;;;;;;;20.60;4.90;;;2.50;99.90;;;;;;5048979;28;20040;-80
2020/12/26 02:53:55;;;;;;;16.83;4.40;;;2.60;99.90;;;;;;5044920;28;20427;-80
2020/12/26 02:56:21;;;;;;;19.70;4.35;;;2.60;99.90;;;;;;5048394;28;20037;-82
2020/12/26 02:58:47;;;;;;;25.33;5.07;;;2.60;99.90;;;;;;5045490;28;20061;-82
2020/12/26 03:01:12;;;;;;;12.43;4.55;;;2.60;99.90;;;;;;5044054;28;20025;-83
2020/12/26 03:03:38;;;;;;;16.15;4.07;;;2.60;99.90;;;;;;5056423;28;20028;-82
2020/12/26 03:06:04;;;;;;;13.38;4.18;;;2.60;99.90;;;;;;5032571;28;20032;-82
2020/12/26 03:08:30;;;;;;;12.90;4.00;;;2.70;99.90;;;;;;5034431;28;20056;-83
2020/12/26 03:10:55;;;;;;;17.92;4.00;;;2.70;99.90;;;;;;5046513;28;20025;-83
2020/12/26 03:13:21;;;;;;;33.95;4.70;;;2.70;99.90;;;;;;5050089;28;20040;-82
2020/12/26 03:15:46;;;;;;;15.68;4.60;;;2.60;99.90;;;;;;5039917;28;20048;-82
2020/12/26 03:18:12;;;;;;;8.43;3.75;;;2.60;99.90;;;;;;5032780;28;20048;-82
2020/12/26 03:20:37;;;;;;;17.85;4.20;;;2.70;99.90;;;;;;5048469;28;20108;-82
2020/12/26 03:23:03;;;;;;;12.23;4.40;;;2.70;99.90;;;;;;5050506;28;20389;-82
2020/12/26 03:25:28;;;;;;;13.88;3.72;;;2.60;99.90;;;;;;5047889;28;20025;-82
2020/12/26 03:27:54;;;;;;;12.20;4.75;;;2.70;99.90;;;;;;5032440;28;20042;-82
2020/12/26 03:30:20;;;;;;;15.82;4.25;;;2.70;99.90;;;;;;5040016;28;20025;-82
2020/12/26 03:32:45;;;;;;;14.27;3.95;;;2.60;99.90;;;;;;5054610;28;20042;-81
2020/12/26 03:35:11;;;;;;;9.23;3.72;;;2.70;99.90;;;;;;5060973;28;20032;-82
2020/12/26 03:37:38;;;;;;;8.15;3.72;;;2.60;99.90;;;;;;5066367;28;20105;-82
2020/12/26 03:40:05;;;;;;;16.45;4.55;;;2.70;99.90;;;;;;5055657;28;20131;-82
2020/12/26 03:42:30;;;;;;;15.23;3.80;;;2.60;99.90;;;;;;5069103;28;20115;-82
2020/12/26 03:44:56;;;;;;;13.60;5.35;;;2.60;99.90;;;;;;5063367;28;20062;-80
2020/12/26 03:47:22;;;;;;;9.15;3.33;;;2.70;99.90;;;;;;5068101;28;20041;-80
2020/12/26 03:49:47;;;;;;;13.65;3.70;;;2.60;99.90;;;;;;5065547;28;20028;-82
2020/12/26 03:52:13;;;;;;;16.27;4.30;;;2.60;99.90;;;;;;5067791;28;20027;-82
2020/12/26 03:54:38;;;;;;;13.23;3.33;;;2.70;99.90;;;;;;5062395;28;20101;-82
2020/12/26 03:57:04;;;;;;;9.10;3.40;;;2.70;99.90;;;;;;5068323;28;20040;-82
2020/12/26 03:59:30;;;;;;;8.95;3.10;;;2.70;99.90;;;;;;5062516;28;20017;-82
2020/12/26 04:01:55;;;;;;;13.18;3.28;;;2.80;99.90;;;;;;5052128;28;20032;-82
2020/12/26 04:04:21;;;;;;;16.42;3.53;;;2.70;99.90;;;;;;5053556;28;20038;-82
2020/12/26 04:06:47;;;;;;;13.25;3.25;;;2.70;99.90;;;;;;5067367;28;20389;-82
2020/12/26 04:09:13;;;;;;;13.88;3.08;;;2.70;99.90;;;;;;5060737;28;20017;-82
2020/12/26 04:11:39;;;;;;;12.43;3.10;;;2.70;99.90;;;;;;5054809;28;20028;-82
2020/12/26 04:14:05;;;;;;;14.27;3.63;;;2.70;99.90;;;;;;5059621;28;20036;-82
2020/12/26 04:16:31;;;;;;;14.35;3.38;;;2.70;99.90;;;;;;5067670;28;20032;-82
2020/12/26 04:18:57;;;;;;;10.68;2.95;;;2.80;99.90;;;;;;5057478;28;20020;-82
2020/12/26 04:21:23;;;;;;;17.02;3.08;;;2.80;99.90;;;;;;5051713;28;20029;-80
2020/12/26 04:23:50;;;;;;;14.23;5.28;;;2.80;99.90;;;;;;5069241;28;20021;-80
2020/12/26 04:26:16;;;;;;;13.40;3.10;;;2.90;99.90;;;;;;5069299;28;20052;-80
2020/12/26 04:28:42;;;;;;;17.85;3.22;;;2.90;99.90;;;;;;5068688;28;20061;-80
2020/12/26 04:31:07;;;;;;;12.30;3.45;;;2.90;99.90;;;;;;5068630;28;20484;-80
2020/12/26 04:33:33;;;;;;;14.50;3.08;;;2.90;99.90;;;;;;5076442;28;20076;-80
2020/12/26 04:35:59;;;;;;;9.88;2.78;;;2.90;99.90;;;;;;5050869;28;20480;-82
2020/12/26 04:38:24;;;;;;;9.27;3.08;;;2.90;99.90;;;;;;5076497;28;20032;-83
2020/12/26 04:40:50;;;;;;;9.57;3.17;;;2.90;99.90;;;;;;5083795;28;20020;-80
2020/12/26 04:43:16;;;;;;;13.70;2.83;;;3.00;99.90;;;;;;5067115;28;20074;-80
2020/12/26 04:45:43;;;;;;;10.43;3.05;;;3.00;99.90;;;;;;5051451;28;20374;-82
2020/12/26 04:48:16;;;;;;;11.88;3.25;;;3.00;99.90;;;;;;5064478;28;20077;-82
2020/12/26 04:50:47;;;;;;;16.77;3.35;;;3.00;99.90;;;;;;5087337;28;20050;-82
2020/12/26 04:53:16;;;;;;;14.65;3.25;;;2.90;99.90;;;;;;5074565;28;20027;-82
2020/12/26 04:55:49;;;;;;;15.70;3.80;;;3.00;99.90;;;;;;5052407;28;20393;-83
2020/12/26 04:58:18;;;;;;;11.65;3.80;;;3.00;99.90;;;;;;5051315;28;20119;-82
2020/12/26 05:00:45;;;;;;;30.27;4.47;;;2.90;99.90;;;;;;5060171;28;20057;-82
2020/12/26 05:03:13;;;;;;;13.63;3.45;;;2.90;99.90;;;;;;5068925;28;20036;-82
2020/12/26 05:05:42;;;;;;;16.83;3.63;;;2.90;99.90;;;;;;5061953;28;20042;-82
2020/12/26 05:08:10;;;;;;;22.83;4.53;;;2.90;99.90;;;;;;5066256;28;20024;-82
2020/12/26 05:10:36;;;;;;;10.23;3.53;;;2.90;99.90;;;;;;5053041;28;20032;-81
2020/12/26 05:13:05;;;;;;;21.55;5.93;;;2.90;99.90;;;;;;5050982;28;20031;-82
2020/12/26 05:15:31;;;;;;;18.80;4.20;;;2.90;99.90;;;;;;5051319;28;20024;-82
2020/12/26 05:17:56;;;;;;;14.45;4.35;;;2.80;99.90;;;;;;5051014;28;20043;-82
2020/12/26 05:20:23;;;;;;;7.50;3.70;;;2.80;99.90;;;;;;5051029;28;20373;-82
2020/12/26 05:23:05;;;;;;;14.25;5.45;;;2.80;99.90;;;;;;5053086;28;20024;-82
2020/12/26 05:25:30;;;;;;;19.58;4.97;;;2.80;99.90;;;;;;5051003;28;20021;-82
2020/12/26 05:28:10;;;;;;;23.02;4.03;;;2.80;99.90;;;;;;5055028;28;20054;-82
2020/12/26 05:30:36;;;;;;;8.55;3.72;;;2.80;99.90;;;;;;5053678;28;20016;-80
2020/12/26 05:33:05;;;;;;;14.38;4.15;;;2.80;99.90;;;;;;5063018;28;20052;-80
2020/12/26 05:35:39;;;;;;;15.02;4.00;;;2.80;99.90;;;;;;5066254;28;20683;-82
2020/12/26 05:38:14;;;;;;;20.85;4.72;;;2.80;99.90;;;;;;5071729;28;20036;-82
2020/12/26 05:40:55;;;;;;;11.77;3.90;;;2.80;99.90;;;;;;5066038;28;20021;-82
2020/12/26 05:43:28;;;;;;;20.25;4.28;;;2.90;99.90;;;;;;5070714;28;20101;-82
2020/12/26 05:45:55;;;;;;;17.05;4.13;;;2.90;99.90;;;;;;5071086;28;20033;-82
2020/12/26 05:48:23;;;;;;;16.75;3.88;;;2.90;99.90;;;;;;5068830;28;20037;-82
2020/12/26 05:50:53;;;;;;;11.27;4.35;;;2.90;99.90;;;;;;5071016;28;20031;-82
2020/12/26 05:53:23;;;;;;;14.02;4.13;;;3.00;99.90;;;;;;5070678;28;20036;-82
2020/12/26 05:55:49;;;;;;;12.90;4.40;;;3.00;99.90;;;;;;5071624;28;20093;-82
2020/12/26 05:58:19;;;;;;;14.80;4.45;;;2.90;99.90;;;;;;5071598;28;20036;-82
2020/12/26 06:00:45;;;;;;;7.95;3.60;;;2.90;99.90;;;;;;5060924;28;20154;-82
2020/12/26 06:03:26;;;;;;;16.02;4.20;;;3.00;99.90;;;;;;5070665;28;20086;-82
2020/12/26 06:05:53;;;;;;;;;;;3.10;99.90;;;;;;5067232;28;20127;-82
2020/12/26 06:08:20;;;;;;;16.85;4.40;;;3.00;99.90;;;;;;5069639;28;19951;-82
2020/12/26 06:10:53;;;;;;;18.88;4.63;;;3.00;99.90;;;;;;5066364;28;20039;-82
2020/12/26 06:13:21;;;;;;;18.90;4.78;;;3.10;99.90;;;;;;5070022;28;20469;-82
2020/12/26 06:15:52;;;;;;;10.25;3.78;;;3.10;99.90;;;;;;5064894;28;20032;-82
2020/12/26 06:18:20;;;;;;;14.43;4.47;;;3.10;99.90;;;;;;5069700;28;20050;-82
2020/12/26 06:20:50;;;;;;;15.23;4.32;;;3.10;99.90;;;;;;5069912;28;20086;-82
2020/12/26 06:23:21;;;;;;;15.63;4.75;;;3.10;99.90;;;;;;5069963;28;20060;-82
2020/12/26 06:25:51;;;;;;;7.45;3.50;;;3.10;99.90;;;;;;5052151;28;20036;-82
2020/12/26 06:28:30;;;;;;;15.15;5.20;;;3.10;99.90;;;;;;5069431;28;20052;-82
2020/12/26 06:31:05;;;;;;;15.73;3.70;;;3.10;99.90;;;;;;5063741;28;20040;-82
2020/12/26 06:33:49;;;;;;;26.02;3.90;;;3.10;99.90;;;;;;5054582;28;20040;-82
2020/12/26 06:36:15;;;;;;;14.82;4.45;;;3.20;99.90;;;;;;5068821;28;20052;-79
2020/12/26 06:38:41;;;;;;;19.33;4.03;;;3.20;99.90;;;;;;5066788;28;20090;-79
2020/12/26 06:41:13;;;;;;;19.73;4.10;;;3.20;99.90;;;;;;5057432;28;20024;-82
2020/12/26 06:43:39;;;;;;;20.52;4.45;;;3.10;99.90;;;;;;5067176;28;20496;-82
2020/12/26 06:46:09;;;;;;;32.15;6.03;;;3.10;99.90;;;;;;5069917;28;20040;-82
2020/12/26 06:48:35;;;;;;;16.15;4.20;;;3.20;99.90;;;;;;5067714;28;20055;-82
2020/12/26 06:51:24;;;;;;;27.10;4.50;;;3.10;99.90;;;;;;5068885;28;20024;-83
2020/12/26 06:53:50;;;;;;;20.13;4.88;;;3.10;99.90;;;;;;5065667;28;20027;-82
2020/12/26 06:56:34;;;;;;;11.10;4.03;;;3.00;99.90;;;;;;5069633;28;20033;-82
2020/12/26 06:59:04;;;;;;;15.18;4.10;;;3.00;99.90;;;;;;5068309;28;20066;-82
2020/12/26 07:01:30;;;;;;;21.55;4.43;;;2.90;99.90;;;;;;5058528;28;20032;-82
2020/12/26 07:04:11;;;;;;;15.00;4.35;;;2.90;99.90;;;;;;5068072;28;20033;-82
2020/12/26 07:06:42;;;;;;;13.00;5.03;;;2.90;99.90;;;;;;5070904;28;20074;-82
2020/12/26 07:09:08;;;;;;;;;;;2.90;99.90;;;;;;5066761;28;20493;-82
2020/12/26 07:11:47;;;;;;;13.32;4.32;;;2.90;99.90;;;;;;5068362;28;19944;-79
2020/12/26 07:14:33;;;;;;;14.55;4.60;;;2.90;99.90;;;;;;5064203;28;20083;-78
2020/12/26 07:17:02;;;;;;;13.07;5.05;;;2.90;99.90;;;;;;5069161;28;20049;-79
2020/12/26 07:19:47;;;;;;;15.65;4.68;;;2.90;99.90;;;;;;5064837;28;20048;-79
2020/12/26 07:22:27;;;;;;;11.60;4.35;;;3.00;99.90;;;;;;5071449;28;20354;-81
2020/12/26 07:24:59;;;;;;;16.20;4.50;;;3.10;99.90;;;;;;5072100;28;20056;-79
2020/12/26 07:27:30;;;;;;;12.40;3.72;;;3.00;99.90;;;;;;5067999;28;20052;-79
2020/12/26 07:30:13;;;;;;;26.55;4.90;;;3.00;99.90;;;;;;5060599;28;20040;-82
2020/12/26 07:32:43;;;;;;;18.08;4.43;;;3.00;99.90;;;;;;5064513;28;20037;-81
2020/12/26 07:35:15;;;;;;;5.72;3.58;;;3.10;99.90;;;;;;5052176;28;20060;-82
2020/12/26 07:37:42;;;;;;;20.27;5.43;;;3.10;99.90;;;;;;5052544;28;20033;-82
2020/12/26 07:40:08;;;;;;;15.10;5.00;;;3.10;99.90;;;;;;5069916;28;20053;-81
2020/12/26 07:42:34;;;;;;;17.00;4.57;;;3.20;99.90;;;;;;5052570;28;20062;-81
2020/12/26 07:45:10;;;;;;;15.68;4.97;;;3.20;99.90;;;;;;5054983;28;20039;-82
2020/12/26 07:47:47;;;;;;;21.95;5.28;;;3.20;99.90;;;;;;5068338;28;20017;-82
2020/12/26 07:50:15;;;;;;;14.57;4.97;;;3.20;99.90;;;;;;5052873;28;20123;-82
2020/12/26 07:52:55;;;;;;;15.57;4.90;;;3.20;99.90;;;;;;5070032;28;20024;-82
2020/12/26 07:55:21;;;;;;;12.75;4.60;;;3.20;99.90;;;;;;5071268;28;20031;-81
2020/12/26 07:57:48;;;;;;;19.65;5.68;;;3.30;99.90;;;;;;5068948;28;20408;-82
2020/12/26 08:00:25;;;;;;;16.10;4.95;;;3.30;99.90;;;;;;5052878;28;20477;-80
2020/12/26 08:02:58;;;;;;;19.23;5.45;;;3.30;99.90;;;;;;5052014;28;20027;-80
2020/12/26 08:05:30;;;;;;;17.75;5.05;;;3.30;99.90;;;;;;5058526;28;20119;-82
2020/12/26 08:07:56;;;;;;;13.45;4.82;;;3.30;99.90;;;;;;5067083;28;20469;-82
2020/12/26 08:10:22;;;;;;;9.57;5.38;;;3.40;99.90;;;;;;5068846;28;20077;-82
2020/12/26 08:13:06;;;;;;;12.93;5.22;;;3.40;99.90;;;;;;5069969;28;20390;-82
2020/12/26 08:15:32;;;;;;;15.60;5.07;;;3.40;99.90;;;;;;5065096;28;20027;-82
2020/12/26 08:18:00;;;;;;;14.93;4.65;;;3.50;99.90;;;;;;5050994;28;20032;-82
2020/12/26 08:20:27;;;;;;;16.05;5.40;;;3.50;99.90;;;;;;5046771;28;20025;-82
2020/12/26 08:22:53;;;;;;;16.65;5.65;;;3.50;99.90;;;;;;5053120;28;20033;-82
2020/12/26 08:25:22;;;;;;;14.77;4.53;;;3.50;99.90;;;;;;5070325;28;20479;-80
2020/12/26 08:27:48;;;;;;;20.15;5.00;;;3.50;99.90;;;;;;5055431;28;20021;-80
2020/12/26 08:30:17;;;;;;;12.07;5.47;;;3.50;99.90;;;;;;5059996;28;20030;-82
2020/12/26 08:33:10;;;;;;;22.20;5.57;;;3.60;99.90;;;;;;5070933;28;20054;-82
2020/12/26 08:36:08;;;;;;;18.75;5.35;;;3.50;99.90;;;;;;5049123;28;20055;-82
2020/12/26 08:38:41;;;;;;;14.80;5.28;;;3.60;99.90;;;;;;4967564;28;20186;-82
2020/12/26 08:41:10;;;;;;;16.35;5.20;;;3.60;99.90;;;;;;4967907;28;20484;-82
2020/12/26 08:43:37;;;;;;;18.02;6.78;;;3.60;99.90;;;;;;4951664;28;20031;-82
2020/12/26 08:46:14;;;;;;;14.13;5.65;;;3.60;99.90;;;;;;4952821;28;20495;-82
2020/12/26 08:48:41;;;;;;;19.48;5.05;;;3.70;99.90;;;;;;4951522;28;20146;-82
2020/12/26 08:51:16;;;;;;;17.27;5.95;;;3.70;99.90;;;;;;4951976;28;20070;-80
2020/12/26 08:53:43;;;;;;;24.08;6.45;;;3.70;99.90;;;;;;4950523;28;20105;-80
2020/12/26 08:56:08;;;;;;;10.00;5.38;;;3.70;99.90;;;;;;4936118;28;20526;-82
2020/12/26 08:58:34;;;;;;;17.02;6.30;;;3.70;99.90;;;;;;4951644;28;20031;-82
2020/12/26 09:01:02;;;;;;;16.63;5.70;;;3.70;99.90;;;;;;4951593;28;20027;-82
2020/12/26 09:03:30;;;;;;;33.40;6.82;;;3.70;99.90;;;;;;4968087;28;20190;-82
2020/12/26 09:05:58;;;;;;;19.77;6.55;;;3.80;99.90;;;;;;4960855;28;20089;-82
2020/12/26 09:08:36;;;;;;;19.33;7.05;;;3.80;99.90;;;;;;4965840;28;20038;-82
2020/12/26 09:11:06;;;;;;;10.90;5.60;;;3.80;99.90;;;;;;4967177;28;20395;-82
2020/12/26 09:13:40;;;;;;;12.13;6.38;;;3.80;99.90;;;;;;4962030;28;20019;-82
2020/12/26 09:16:10;;;;;;;14.63;6.57;;;3.90;99.90;;;;;;5034565;28;20116;-82
2020/12/26 09:18:43;;;;;;;25.02;7.28;;;3.90;99.90;;;;;;5043738;28;20123;-82
2020/12/26 09:21:26;;;;;;;21.88;7.50;;;3.90;99.90;;;;;;5051186;28;20050;-82
2020/12/26 09:23:53;;;;;;;15.77;7.65;;;4.00;99.90;;;;;;5043309;28;20032;-82
2020/12/26 09:26:19;;;;;;;13.73;7.20;;;4.00;99.90;;;;;;5051177;28;20039;-81
2020/12/26 09:28:58;;;;;;;24.08;7.70;;;4.20;99.90;;;;;;5051057;28;20017;-82
2020/12/26 09:31:34;;;;;;;20.92;8.55;;;4.30;99.90;;;;;;5046956;28;20052;-80
2020/12/26 09:34:02;;;;;;;23.30;7.68;;;4.30;99.90;;;;;;5055730;28;20132;-80
2020/12/26 09:36:28;;;;;;;17.67;8.45;;;4.30;99.90;;;;;;5047021;28;20397;-80
2020/12/26 09:38:55;;;;;;;21.90;7.63;;;4.20;99.90;;;;;;5047685;28;20036;-80
2020/12/26 09:41:25;;;;;;;15.60;8.32;;;4.20;99.90;;;;;;5040608;28;20072;-82
2020/12/26 09:43:55;;;;;;;21.73;8.95;;;4.20;99.90;;;;;;5046383;28;20033;-82
2020/12/26 09:46:22;;;;;;;15.48;8.02;;;4.20;99.90;;;;;;5047184;28;20031;-82
2020/12/26 09:48:48;;;;;;;14.18;7.93;;;4.20;99.90;;;;;;5048280;28;20078;-82
2020/12/26 09:51:22;;;;;;;21.42;9.43;;;4.20;99.90;;;;;;5046574;28;20039;-82
2020/12/26 09:53:48;;;;;;;14.60;8.65;;;4.20;99.90;;;;;;5040321;28;20488;-82
2020/12/26 09:56:14;;;;;;;30.42;10.95;;;4.30;99.90;;;;;;5047339;28;20028;-80
2020/12/26 09:58:42;;;;;;;26.65;9.45;;;4.30;99.90;;;;;;5046547;28;20033;-79
2020/12/26 10:01:15;;;;;;;16.55;9.40;;;4.30;99.90;;;;;;5046975;28;20406;-82
2020/12/26 10:03:42;;;;;;;20.25;8.25;;;4.40;99.90;;;;;;5046289;28;20033;-82
2020/12/26 10:06:18;;;;;;;17.98;8.60;;;4.40;99.90;;;;;;5046394;28;20555;-80
2020/12/26 10:08:45;;;;;;;25.65;9.60;;;4.40;99.90;;;;;;5044235;28;20086;-80
2020/12/26 10:11:11;;;;;;;22.27;10.75;;;4.40;99.90;;;;;;5049836;28;20029;-80
2020/12/26 10:13:37;;;;;;;22.20;9.68;;;4.40;99.90;;;;;;5049934;28;20056;-80
2020/12/26 10:16:03;;;;;;;18.15;9.43;;;4.40;99.90;;;;;;5050494;28;20025;-80
2020/12/26 10:18:29;;;;;;;19.25;10.85;;;4.40;99.90;;;;;;5051467;28;20033;-80
2020/12/26 10:20:55;;;;;;;23.55;9.45;;;4.40;99.90;;;;;;5049916;28;20029;-82
2020/12/26 10:23:20;;;;;;;27.20;10.43;;;4.40;99.90;;;;;;5051284;28;20527;-82
2020/12/26 10:25:46;;;;;;;21.80;10.88;;;4.50;99.90;;;;;;5050437;28;20390;-82
2020/12/26 10:28:12;;;;;;;19.25;9.93;;;4.50;99.90;;;;;;5050065;28;20052;-82
2020/12/26 10:30:37;;;;;;;20.65;9.77;;;4.60;99.90;;;;;;5049867;28;20087;-82
2020/12/26 10:33:03;;;;;;;21.45;10.40;;;4.50;99.90;;;;;;5057542;28;20499;-82
2020/12/26 10:35:28;;;;;;;32.00;11.55;;;4.60;99.90;;;;;;5072194;28;20039;-80
2020/12/26 10:37:54;;;;;;;21.88;10.02;;;4.70;99.90;;;;;;5065127;28;20426;-80
2020/12/26 10:40:19;;;;;;;19.48;10.63;;;4.70;99.90;;;;;;5061308;28;20031;-80
2020/12/26 10:42:45;;;;;;;25.70;9.60;;;4.80;99.90;;;;;;5061511;28;20478;-80
2020/12/26 10:45:11;;;;;;;17.45;9.57;;;4.80;99.90;;;;;;5053398;28;20502;-82
2020/12/26 10:47:36;;;;;;;23.67;10.15;;;4.80;99.90;;;;;;5067281;28;20028;-82
2020/12/26 10:50:03;;;;;;;19.70;10.50;;;4.80;99.90;;;;;;5073428;28;20033;-82
2020/12/26 10:52:29;;;;;;;20.30;10.40;;;4.80;99.90;;;;;;5086178;28;20052;-82
2020/12/26 10:54:55;;;;;;;17.83;9.18;;;4.80;99.90;;;;;;5052865;28;20031;-80
2020/12/26 10:57:20;;;;;;;14.63;9.35;;;4.80;99.90;;;;;;5072164;28;20037;-80
2020/12/26 10:59:46;;;;;;;24.90;10.35;;;4.80;99.90;;;;;;5070730;28;20055;-81
2020/12/26 11:02:12;;;;;;;19.80;10.30;;;4.80;99.90;;;;;;5052623;28;20025;-82
2020/12/26 11:04:37;;;;;;;23.20;10.00;;;4.80;99.90;;;;;;5056011;28;20034;-82
2020/12/26 11:07:04;;;;;;;22.77;9.85;;;4.80;99.90;;;;;;5088065;28;20075;-82
2020/12/26 11:09:29;;;;;;;14.98;9.25;;;4.80;99.90;;;;;;5061983;28;20044;-82
2020/12/26 11:11:55;;;;;;;16.48;9.75;;;4.90;99.90;;;;;;5068444;28;20121;-82
2020/12/26 11:14:21;;;;;;;26.02;11.18;;;5.00;99.90;;;;;;5052850;28;20028;-82
2020/12/26 11:16:50;;;;;;;12.50;8.75;;;5.10;99.90;;;;;;5052596;28;20127;-80
2020/12/26 11:19:17;;;;;;;16.17;9.23;;;5.30;99.90;;;;;;5051891;28;20028;-80
2020/12/26 11:21:43;;;;;;;16.73;9.05;;;5.20;99.90;;;;;;5052438;28;20025;-82
2020/12/26 11:24:09;;;;;;;24.00;9.35;;;5.30;99.90;;;;;;5052790;28;20024;-82
2020/12/26 11:26:35;;;;;;;16.73;8.68;;;5.30;99.90;;;;;;5052511;28;20021;-79
2020/12/26 11:29:01;;;;;;;23.33;10.05;;;5.30;99.90;;;;;;5070201;28;20373;-80
2020/12/26 11:31:27;;;;;;;26.95;10.73;;;5.30;99.90;;;;;;5062536;28;20028;-82
2020/12/26 11:33:53;;;;;;;25.75;8.90;;;5.30;99.90;;;;;;5058000;28;20087;-82
2020/12/26 11:36:20;;;;;;;25.40;9.27;;;5.30;99.90;;;;;;5050513;28;20029;-82
2020/12/26 11:38:47;;;;;;;18.20;9.00;;;5.30;99.90;;;;;;5049533;28;20036;-82
2020/12/26 11:41:21;;;;;;;25.88;10.10;;;5.20;99.90;;;;;;5058272;28;20028;-82
2020/12/26 11:43:46;;;;;;;18.80;9.85;;;5.20;99.90;;;;;;5048900;28;20086;-81
2020/12/26 11:46:13;;;;;;;19.92;10.82;;;5.20;99.90;;;;;;5048639;28;20529;-82
2020/12/26 11:48:39;;;;;;;25.40;9.60;;;5.20;99.90;;;;;;5050040;28;20029;-81
2020/12/26 11:51:06;;;;;;;24.33;10.68;;;5.20;99.90;;;;;;5058937;28;20028;-82
2020/12/26 11:53:32;;;;;;;16.15;9.77;;;5.20;99.90;;;;;;5062762;28;20112;-82
2020/12/26 11:55:58;;;;;;;21.15;11.02;;;5.20;99.90;;;;;;5048424;28;20129;-82
2020/12/26 11:58:24;;;;;;;16.58;10.00;;;5.20;99.90;;;;;;5047788;28;20074;-82
2020/12/26 12:00:58;;;;;;;22.05;10.52;;;5.20;99.90;;;;;;5052510;28;20021;-82
2020/12/26 12:03:24;;;;;;;27.27;11.77;;;5.30;99.90;;;;;;5060047;28;20029;-82
2020/12/26 12:05:49;;;;;;;29.40;12.35;;;5.30;99.90;;;;;;5058784;28;20039;-82
2020/12/26 12:08:15;;;;;;;20.15;11.55;;;5.20;99.90;;;;;;5065985;28;20492;-82
2020/12/26 12:10:41;;;;;;;20.17;10.68;;;5.20;99.90;;;;;;5059810;28;20040;-82
2020/12/26 12:13:07;;;;;;;29.27;12.45;;;5.30;99.90;;;;;;5058817;28;20077;-82
2020/12/26 12:15:33;;;;;;;19.45;11.07;;;5.30;99.90;;;;;;5068674;28;20112;-83
2020/12/26 12:17:59;;;;;;;21.42;11.95;;;5.30;99.90;;;;;;5066982;28;20127;-82
2020/12/26 12:20:32;;;;;;;23.73;12.18;;;5.30;99.90;;;;;;5048712;28;20441;-82
2020/12/26 12:22:58;;;;;;;22.08;12.68;;;5.30;99.90;;;;;;5048318;28;20036;-82
2020/12/26 12:25:26;;;;;;;23.30;12.65;;;5.20;99.90;;;;;;5048036;28;20078;-82
2020/12/26 12:27:52;;;;;;;32.72;13.63;;;5.30;99.90;;;;;;5047354;28;20032;-82
2020/12/26 12:30:17;;;;;;;21.15;12.70;;;5.30;99.90;;;;;;5054092;28;20027;-82
2020/12/26 12:32:44;;;;;;;24.80;12.80;;;5.30;99.90;;;;;;5062475;28;20044;-82
2020/12/26 12:35:10;;;;;;;21.55;13.57;;;5.30;99.90;;;;;;5083604;28;20051;-82
2020/12/26 12:37:36;;;;;;;22.65;13.73;;;5.30;99.90;;;;;;5069138;28;20036;-82
2020/12/26 12:40:06;;;;;;;25.90;14.57;;;5.30;99.90;;;;;;5061514;28;20477;-82
2020/12/26 12:42:32;;;;;;;24.55;14.35;;;5.40;99.90;;;;;;5063671;28;20121;-81
2020/12/26 12:44:58;;;;;;;29.45;13.82;;;5.30;99.90;;;;;;5058078;28;20038;-81
2020/12/26 12:47:25;;;;;;;28.42;13.95;;;5.30;99.90;;;;;;5068718;28;20028;-81
2020/12/26 12:49:51;;;;;;;33.63;15.85;;;5.30;99.90;;;;;;5073532;28;20029;-81